Time;durP1;ratioP1;P1;durP2;ratioP2;P2;SDS_P1;SDS_P2;PMS_P1;PMS_P2;Temp;Humidity;BMP_temperature;BMP_pressure;BME280_temperature;BME280_humidity;BME280_pressure;Samples;Min_cycle;Max_cycle;Signal;HPM_P1;HPM_P2
2022/06/16 00:00:47;;;;;;;12.52;9.20;;;;;;;;;;6243885;23;20103;-79
2022/06/16 00:03:12;;;;;;;15.43;8.70;;;;;;;;;;6217949;23;20008;-79
2022/06/16 00:05:40;;;;;;;18.35;9.30;;;;;;;;;;6245296;23;20431;-81
2022/06/16 00:08:06;;;;;;;13.95;8.65;;;;;;;;;;6218214;23;20477;-79
2022/06/16 00:10:32;;;;;;;12.23;8.98;;;;;;;;;;6243138;23;20004;-79
2022/06/16 00:12:58;;;;;;;28.58;9.18;;;;;;;;;;6225233;22;20004;-80
2022/06/16 00:15:27;;;;;;;10.25;8.35;;;;;;;;;;6247593;23;20004;-80
2022/06/16 00:17:53;;;;;;;13.52;9.05;;;;;;;;;;6188051;23;20015;-80
2022/06/16 00:20:18;;;;;;;15.13;9.57;;;;;;;;;;6214355;23;20071;-80
2022/06/16 00:22:44;;;;;;;12.32;9.40;;;;;;;;;;6215530;23;20001;-80
2022/06/16 00:25:10;;;;;;;13.88;8.90;;;;;;;;;;6218467;23;20005;-80
2022/06/16 00:27:35;;;;;;;12.75;9.65;;;;;;;;;;6193613;23;20075;-79
2022/06/16 00:30:01;;;;;;;11.48;9.25;;;;;;;;;;6168472;23;20004;-79
2022/06/16 00:32:26;;;;;;;11.45;8.75;;;;;;;;;;6196727;23;20005;-80
2022/06/16 00:34:52;;;;;;;12.93;9.13;;;;;;;;;;6216625;23;20005;-80
2022/06/16 00:37:17;;;;;;;13.95;9.15;;;;;;;;;;6161336;23;20122;-80
2022/06/16 00:39:43;;;;;;;10.90;8.55;;;;;;;;;;6186978;23;20009;-81
2022/06/16 00:42:19;;;;;;;13.00;8.88;;;;;;;;;;6212363;23;20016;-81
2022/06/16 00:44:46;;;;;;;14.35;9.38;;;;;;;;;;6187215;23;20343;-80
2022/06/16 00:47:12;;;;;;;17.42;9.65;;;;;;;;;;6166585;23;20079;-80
2022/06/16 00:49:40;;;;;;;12.85;8.90;;;;;;;;;;6212194;23;20098;-80
2022/06/16 00:52:09;;;;;;;11.07;8.38;;;;;;;;;;6166286;23;20031;-81
2022/06/16 00:55:04;;;;;;;15.65;9.00;;;;;;;;;;6193863;23;20009;-80
2022/06/16 00:57:37;;;;;;;12.40;8.70;;;;;;;;;;6193966;23;20054;-80
2022/06/16 01:00:08;;;;;;;11.48;9.30;;;;;;;;;;6162808;23;20004;-81
2022/06/16 01:02:33;;;;;;;13.95;9.38;;;;;;;;;;6163923;23;20004;-80
2022/06/16 01:04:59;;;;;;;12.60;9.10;;;;;;;;;;6187210;23;20027;-80
2022/06/16 01:07:30;;;;;;;16.13;9.63;;;;;;;;;;6213073;23;19997;-80
2022/06/16 01:09:56;;;;;;;14.48;10.10;;;;;;;;;;6187215;23;20004;-80
2022/06/16 01:16:09;;;;;;;16.80;9.82;;;;;;;;;;6197639;23;20062;-80
2022/06/16 01:18:37;;;;;;;15.90;9.10;;;;;;;;;;6245446;23;19996;-80
2022/06/16 01:21:12;;;;;;;16.80;9.88;;;;;;;;;;6245689;23;20004;-80
2022/06/16 01:23:50;;;;;;;12.00;9.38;;;;;;;;;;6245609;23;20091;-80
2022/06/16 01:26:37;;;;;;;18.65;9.98;;;;;;;;;;6245791;23;20075;-79
2022/06/16 01:29:21;;;;;;;14.18;9.35;;;;;;;;;;6245943;23;20103;-79
2022/06/16 01:32:14;;;;;;;14.32;9.23;;;;;;;;;;6245325;23;20023;-80
2022/06/16 01:34:58;;;;;;;14.80;9.60;;;;;;;;;;6229600;23;20016;-80
2022/06/16 01:37:36;;;;;;;13.27;9.48;;;;;;;;;;6245401;23;19996;-81
2022/06/16 01:40:30;;;;;;;12.88;9.25;;;;;;;;;;6246124;23;20053;-81
2022/06/16 01:43:33;;;;;;;12.00;9.85;;;;;;;;;;6221068;23;20012;-80
2022/06/16 01:46:01;;;;;;;18.15;10.27;;;;;;;;;;6245623;23;20327;-79
2022/06/16 01:48:27;;;;;;;13.65;9.45;;;;;;;;;;6245537;23;20609;-80
2022/06/16 01:51:12;;;;;;;17.63;9.00;;;;;;;;;;6220776;23;20029;-79
2022/06/16 01:54:02;;;;;;;13.35;9.75;;;;;;;;;;6206887;23;20082;-81
2022/06/16 01:56:37;;;;;;;14.52;9.20;;;;;;;;;;6197778;23;20012;-81
2022/06/16 01:59:06;;;;;;;18.55;10.32;;;;;;;;;;6219512;23;20000;-81
2022/06/16 02:01:36;;;;;;;15.93;10.25;;;;;;;;;;6194154;23;20004;-81
2022/06/16 02:04:23;;;;;;;;;;;;;;;;;;6218632;23;20062;-80
2022/06/16 02:06:51;;;;;;;14.10;10.05;;;;;;;;;;6218203;23;20397;-80
2022/06/16 02:09:19;;;;;;;15.07;9.98;;;;;;;;;;6218856;23;20371;-81
2022/06/16 02:11:46;;;;;;;13.13;9.93;;;;;;;;;;6201642;23;19999;-83
2022/06/16 02:14:21;;;;;;;19.08;9.85;;;;;;;;;;6227539;23;20420;-80
2022/06/16 02:16:46;;;;;;;16.70;10.38;;;;;;;;;;6218983;23;20004;-81
2022/06/16 02:19:14;;;;;;;14.10;10.15;;;;;;;;;;6193986;23;20142;-81
2022/06/16 02:21:46;;;;;;;19.95;10.25;;;;;;;;;;6218630;23;20463;-80
2022/06/16 02:24:13;;;;;;;15.20;10.27;;;;;;;;;;6218433;23;20004;-80
2022/06/16 02:26:39;;;;;;;14.10;9.23;;;;;;;;;;6218446;23;20035;-81
2022/06/16 02:29:29;;;;;;;14.18;9.15;;;;;;;;;;6218358;23;20000;-80
2022/06/16 02:32:00;;;;;;;14.65;9.70;;;;;;;;;;6222481;23;20035;-80
2022/06/16 02:34:42;;;;;;;14.35;9.45;;;;;;;;;;6253816;23;20008;-81
2022/06/16 02:37:26;;;;;;;16.85;10.15;;;;;;;;;;6193069;23;20082;-81
2022/06/16 02:40:26;;;;;;;19.30;10.55;;;;;;;;;;6218251;23;20004;-81
2022/06/16 02:43:04;;;;;;;14.98;9.60;;;;;;;;;;6244981;23;20427;-80
2022/06/16 02:45:38;;;;;;;16.08;10.18;;;;;;;;;;6218013;23;20004;-81
2022/06/16 02:48:07;;;;;;;17.70;10.20;;;;;;;;;;6244689;23;20000;-81
2022/06/16 02:50:53;;;;;;;17.50;10.15;;;;;;;;;;6244668;23;20012;-79
2022/06/16 02:53:25;;;;;;;14.82;10.50;;;;;;;;;;6227785;23;20032;-81
2022/06/16 02:55:52;;;;;;;24.65;10.43;;;;;;;;;;6245743;23;20014;-80
2022/06/16 02:58:18;;;;;;;19.58;9.55;;;;;;;;;;6218111;23;20054;-81
2022/06/16 03:00:48;;;;;;;18.33;10.23;;;;;;;;;;6193721;23;20004;-81
2022/06/16 03:03:26;;;;;;;14.35;10.63;;;;;;;;;;6218728;23;20041;-81
2022/06/16 03:05:53;;;;;;;17.70;9.68;;;;;;;;;;6245137;23;20479;-80
2022/06/16 03:08:20;;;;;;;15.43;10.00;;;;;;;;;;6244766;23;20367;-80
2022/06/16 03:10:51;;;;;;;17.73;10.10;;;;;;;;;;6193463;23;20000;-80
2022/06/16 03:13:19;;;;;;;17.00;9.55;;;;;;;;;;6250991;23;20003;-80
2022/06/16 03:15:44;;;;;;;18.58;10.27;;;;;;;;;;6199625;23;20027;-81
2022/06/16 03:18:10;;;;;;;18.67;10.63;;;;;;;;;;6217665;23;20000;-81
2022/06/16 03:20:35;;;;;;;15.20;10.13;;;;;;;;;;6217619;23;20011;-80
2022/06/16 03:23:01;;;;;;;15.25;10.40;;;;;;;;;;6244659;23;20423;-80
2022/06/16 03:25:26;;;;;;;14.95;10.13;;;;;;;;;;6244305;23;20004;-80
2022/06/16 03:27:52;;;;;;;15.35;10.10;;;;;;;;;;6244587;23;20028;-81
2022/06/16 03:30:17;;;;;;;18.75;10.05;;;;;;;;;;6217440;23;20023;-80
2022/06/16 03:32:43;;;;;;;16.25;10.52;;;;;;;;;;6218452;23;20015;-79
2022/06/16 03:35:08;;;;;;;20.67;9.98;;;;;;;;;;6205530;23;20012;-80
2022/06/16 03:37:34;;;;;;;14.77;10.98;;;;;;;;;;6244596;23;20000;-80
2022/06/16 03:39:59;;;;;;;14.55;10.15;;;;;;;;;;6217914;23;20419;-80
2022/06/16 03:42:25;;;;;;;21.98;11.13;;;;;;;;;;6243984;23;20032;-80
2022/06/16 03:44:51;;;;;;;13.60;9.95;;;;;;;;;;6192779;23;20058;-80
2022/06/16 03:47:16;;;;;;;16.25;10.77;;;;;;;;;;6244131;23;20004;-81
2022/06/16 03:49:42;;;;;;;14.80;10.18;;;;;;;;;;6193108;23;20068;-81
2022/06/16 03:52:07;;;;;;;19.55;10.10;;;;;;;;;;6217663;23;20008;-80
2022/06/16 03:54:33;;;;;;;21.00;10.20;;;;;;;;;;6223122;23;20386;-80
2022/06/16 03:56:58;;;;;;;17.95;10.65;;;;;;;;;;6247179;23;20008;-79
2022/06/16 03:59:24;;;;;;;15.80;10.15;;;;;;;;;;6244313;23;20063;-80
2022/06/16 04:01:49;;;;;;;19.40;11.07;;;;;;;;;;6217831;23;20351;-80
2022/06/16 04:04:15;;;;;;;18.80;10.13;;;;;;;;;;6243916;23;20008;-80
2022/06/16 04:06:40;;;;;;;15.93;10.75;;;;;;;;;;6244042;23;20004;-80
2022/06/16 04:09:06;;;;;;;18.55;11.93;;;;;;;;;;6217460;23;20027;-80
2022/06/16 04:11:31;;;;;;;17.25;11.63;;;;;;;;;;6217412;23;20355;-80
2022/06/16 04:14:07;;;;;;;17.85;10.98;;;;;;;;;;6246862;23;20012;-82
2022/06/16 04:16:35;;;;;;;15.15;11.02;;;;;;;;;;6225600;23;20016;-80
2022/06/16 04:19:01;;;;;;;20.38;12.15;;;;;;;;;;6217354;23;20086;-80
2022/06/16 04:21:26;;;;;;;18.67;11.32;;;;;;;;;;6192398;23;20008;-81
2022/06/16 04:23:52;;;;;;;22.17;11.07;;;;;;;;;;6244091;23;20004;-81
2022/06/16 04:26:18;;;;;;;19.27;10.68;;;;;;;;;;6217748;23;20031;-77
2022/06/16 04:28:43;;;;;;;16.38;10.65;;;;;;;;;;6244234;23;20420;-78
2022/06/16 04:31:09;;;;;;;18.85;11.35;;;;;;;;;;6243403;23;20008;-78
2022/06/16 04:33:35;;;;;;;22.23;10.85;;;;;;;;;;6244094;23;20000;-78
2022/06/16 04:36:00;;;;;;;18.52;10.88;;;;;;;;;;6221461;23;20517;-77
2022/06/16 04:38:26;;;;;;;20.25;10.82;;;;;;;;;;6191931;23;20332;-77
2022/06/16 04:40:52;;;;;;;19.42;10.45;;;;;;;;;;6217309;23;20000;-78
2022/06/16 04:43:17;;;;;;;14.18;10.23;;;;;;;;;;6243863;23;20004;-78
2022/06/16 04:45:43;;;;;;;16.58;10.20;;;;;;;;;;6243628;23;20000;-77
2022/06/16 04:48:09;;;;;;;17.50;10.80;;;;;;;;;;6245565;23;20340;-75
2022/06/16 04:50:35;;;;;;;24.70;10.07;;;;;;;;;;6245658;23;20737;-78
2022/06/16 04:53:01;;;;;;;18.13;9.55;;;;;;;;;;6245856;23;20363;-75
2022/06/16 04:55:26;;;;;;;18.60;10.48;;;;;;;;;;6247534;23;20000;-76
2022/06/16 04:57:54;;;;;;;22.10;9.43;;;;;;;;;;6221622;23;19997;-77
2022/06/16 05:00:20;;;;;;;15.65;9.90;;;;;;;;;;6194516;23;20057;-76
2022/06/16 05:02:45;;;;;;;20.02;11.00;;;;;;;;;;6218825;23;20071;-77
2022/06/16 05:05:11;;;;;;;17.70;10.30;;;;;;;;;;6245205;23;20012;-75
2022/06/16 05:07:36;;;;;;;17.08;10.07;;;;;;;;;;6219484;23;20062;-76
2022/06/16 05:10:02;;;;;;;17.05;10.80;;;;;;;;;;6218843;23;20335;-76
2022/06/16 05:12:27;;;;;;;12.52;9.90;;;;;;;;;;6219144;23;20492;-75
2022/06/16 05:14:53;;;;;;;21.98;10.55;;;;;;;;;;6218614;23;20012;-76
2022/06/16 05:17:19;;;;;;;20.17;12.02;;;;;;;;;;6245783;23;20015;-76
2022/06/16 05:19:44;;;;;;;21.08;11.70;;;;;;;;;;6245583;23;20459;-75
2022/06/16 05:22:10;;;;;;;18.98;11.98;;;;;;;;;;6245146;23;20004;-76
2022/06/16 05:24:37;;;;;;;20.27;12.50;;;;;;;;;;6246459;23;20024;-76
2022/06/16 05:27:07;;;;;;;23.02;12.50;;;;;;;;;;6246662;23;20039;-76
2022/06/16 05:29:36;;;;;;;18.10;12.23;;;;;;;;;;6219964;23;20001;-77
2022/06/16 05:32:01;;;;;;;20.50;11.52;;;;;;;;;;6247130;23;20454;-76
2022/06/16 05:34:27;;;;;;;18.40;12.25;;;;;;;;;;6244344;23;20011;-77
2022/06/16 05:36:52;;;;;;;19.13;11.20;;;;;;;;;;6245288;23;20004;-78
2022/06/16 05:39:17;;;;;;;21.25;12.63;;;;;;;;;;6245668;23;20379;-77
2022/06/16 05:41:46;;;;;;;14.52;10.15;;;;;;;;;;6245023;23;20009;-76
2022/06/16 05:44:11;;;;;;;19.52;12.10;;;;;;;;;;6243740;23;20015;-75
2022/06/16 05:46:37;;;;;;;29.67;17.08;;;;;;;;;;6244309;23;20004;-76
2022/06/16 05:49:03;;;;;;;17.58;11.40;;;;;;;;;;6217317;23;20000;-76
2022/06/16 05:51:29;;;;;;;14.05;9.40;;;;;;;;;;6215566;23;20218;-76
2022/06/16 05:53:54;;;;;;;17.05;9.73;;;;;;;;;;6215154;23;20007;-76
2022/06/16 05:56:22;;;;;;;14.20;8.98;;;;;;;;;;6218121;23;20000;-76
2022/06/16 05:58:48;;;;;;;12.70;9.63;;;;;;;;;;6242528;23;20000;-77
2022/06/16 06:01:13;;;;;;;12.68;9.05;;;;;;;;;;6241513;23;20012;-77
2022/06/16 06:03:39;;;;;;;11.50;9.05;;;;;;;;;;6192007;23;20031;-76
2022/06/16 06:06:05;;;;;;;13.38;7.55;;;;;;;;;;6244864;23;20012;-77
2022/06/16 06:16:45;;;;;;;18.38;10.95;;;;;;;;;;6207522;23;20042;-76
2022/06/16 06:19:25;;;;;;;18.23;12.65;;;;;;;;;;6245125;23;20419;-77
2022/06/16 06:22:02;;;;;;;9.73;7.15;;;;;;;;;;6218303;23;20391;-76
2022/06/16 06:24:39;;;;;;;10.50;6.40;;;;;;;;;;6218973;23;20454;-76
2022/06/16 06:27:37;;;;;;;9.82;6.65;;;;;;;;;;6246205;23;20011;-76
2022/06/16 06:30:12;;;;;;;10.95;7.55;;;;;;;;;;6222125;23;20004;-77
2022/06/16 06:32:37;;;;;;;26.60;19.50;;;;;;;;;;6244584;23;20142;-78
2022/06/16 06:35:03;;;;;;;10.52;7.70;;;;;;;;;;6244832;23;20005;-76
2022/06/16 06:37:29;;;;;;;8.77;6.63;;;;;;;;;;6250921;23;20011;-77
2022/06/16 06:39:54;;;;;;;11.27;6.60;;;;;;;;;;6217981;23;20009;-77
2022/06/16 06:42:20;;;;;;;8.23;6.10;;;;;;;;;;6217556;23;20067;-77
2022/06/16 06:44:45;;;;;;;8.27;5.80;;;;;;;;;;6244947;23;20004;-77
2022/06/16 06:47:21;;;;;;;6.72;5.65;;;;;;;;;;6244803;23;20054;-77
2022/06/16 06:49:47;;;;;;;12.15;5.72;;;;;;;;;;6219508;23;20328;-77
2022/06/16 06:52:13;;;;;;;8.85;6.40;;;;;;;;;;6217761;23;20065;-77
2022/06/16 06:54:38;;;;;;;11.00;6.00;;;;;;;;;;6218137;23;20004;-77
2022/06/16 06:57:05;;;;;;;9.32;7.47;;;;;;;;;;6223042;23;20004;-76
2022/06/16 06:59:31;;;;;;;7.22;6.18;;;;;;;;;;6222390;23;20000;-78
2022/06/16 07:01:56;;;;;;;11.52;7.97;;;;;;;;;;6244639;23;20042;-77
2022/06/16 07:04:22;;;;;;;11.73;6.30;;;;;;;;;;6244747;23;20058;-76
2022/06/16 07:06:48;;;;;;;7.72;6.10;;;;;;;;;;6244280;23;20415;-76
2022/06/16 07:09:14;;;;;;;8.45;6.00;;;;;;;;;;6244790;23;20083;-77
2022/06/16 07:11:41;;;;;;;8.43;5.53;;;;;;;;;;6244962;23;20018;-77
2022/06/16 07:14:06;;;;;;;8.32;5.88;;;;;;;;;;6218103;23;20016;-77
2022/06/16 07:16:32;;;;;;;10.43;6.57;;;;;;;;;;6245475;23;20012;-76
2022/06/16 07:18:58;;;;;;;7.18;6.03;;;;;;;;;;6251001;23;20343;-77
2022/06/16 07:21:24;;;;;;;14.63;5.90;;;;;;;;;;6244261;23;20000;-77
2022/06/16 07:23:51;;;;;;;7.35;5.93;;;;;;;;;;6244542;23;20039;-77
2022/06/16 07:26:18;;;;;;;10.85;5.72;;;;;;;;;;6244609;23;20052;-78
2022/06/16 07:28:44;;;;;;;9.45;6.18;;;;;;;;;;6218462;23;20004;-77
2022/06/16 07:31:09;;;;;;;9.93;5.78;;;;;;;;;;6192966;23;20477;-78
2022/06/16 07:33:34;;;;;;;10.48;6.43;;;;;;;;;;6217809;23;20083;-78
2022/06/16 07:36:00;;;;;;;8.10;5.65;;;;;;;;;;6218253;23;20055;-77
2022/06/16 07:38:26;;;;;;;15.57;6.68;;;;;;;;;;6229884;23;20055;-75
2022/06/16 07:40:52;;;;;;;11.95;6.60;;;;;;;;;;6244942;23;20022;-75
2022/06/16 07:43:18;;;;;;;8.20;5.68;;;;;;;;;;6244489;23;20447;-77
2022/06/16 07:45:45;;;;;;;8.30;6.18;;;;;;;;;;6244001;23;20031;-75
2022/06/16 07:48:10;;;;;;;7.80;5.40;;;;;;;;;;6216963;23;20004;-76
2022/06/16 07:50:36;;;;;;;8.52;5.90;;;;;;;;;;6217363;23;20027;-75
2022/06/16 07:53:07;;;;;;;7.38;5.40;;;;;;;;;;6243944;23;20408;-76
2022/06/16 07:55:33;;;;;;;11.32;5.20;;;;;;;;;;6218190;23;20012;-76
2022/06/16 07:57:59;;;;;;;12.07;5.13;;;;;;;;;;6249742;23;20344;-75
2022/06/16 08:00:26;;;;;;;11.68;5.18;;;;;;;;;;6248807;23;20000;-76
2022/06/16 08:02:51;;;;;;;6.85;5.60;;;;;;;;;;6242209;23;20022;-77
2022/06/16 08:05:17;;;;;;;6.13;5.30;;;;;;;;;;6242366;23;20485;-76
2022/06/16 08:07:43;;;;;;;10.38;5.70;;;;;;;;;;6190714;23;20023;-76
2022/06/16 08:10:11;;;;;;;7.13;5.60;;;;;;;;;;6242884;23;20004;-76
2022/06/16 08:12:37;;;;;;;7.60;5.88;;;;;;;;;;6216805;23;20035;-76
2022/06/16 08:15:03;;;;;;;14.90;5.90;;;;;;;;;;6216527;23;20004;-76
2022/06/16 08:17:31;;;;;;;13.10;6.15;;;;;;;;;;6219024;23;20012;-76
2022/06/16 08:19:56;;;;;;;13.77;9.45;;;;;;;;;;6225765;23;20011;-76
2022/06/16 08:22:22;;;;;;;10.32;6.18;;;;;;;;;;6194205;23;20078;-75
2022/06/16 08:24:48;;;;;;;6.72;5.55;;;;;;;;;;6247268;23;19997;-77
2022/06/16 08:27:14;;;;;;;11.40;5.80;;;;;;;;;;6247252;23;20359;-75
2022/06/16 08:29:41;;;;;;;12.07;5.63;;;;;;;;;;6196185;23;19996;-76
2022/06/16 08:32:07;;;;;;;8.32;5.47;;;;;;;;;;6195739;23;20011;-76
2022/06/16 08:34:32;;;;;;;7.15;5.20;;;;;;;;;;6220262;23;20019;-75
2022/06/16 08:36:58;;;;;;;8.48;4.75;;;;;;;;;;6247019;23;20083;-76
2022/06/16 08:39:23;;;;;;;6.68;5.97;;;;;;;;;;6204009;23;20019;-76
2022/06/16 08:41:49;;;;;;;11.50;5.20;;;;;;;;;;6247374;23;20000;-75
2022/06/16 08:44:25;;;;;;;14.55;6.15;;;;;;;;;;6247202;23;20010;-76
2022/06/16 08:47:04;;;;;;;8.45;4.38;;;;;;;;;;6247106;23;20005;-77
2022/06/16 08:49:33;;;;;;;6.50;4.28;;;;;;;;;;6221720;23;19996;-76
2022/06/16 08:52:10;;;;;;;;;;;;;;;;;;6247419;23;20008;-76
2022/06/16 08:54:44;;;;;;;9.43;4.53;;;;;;;;;;6247117;23;19907;-77
2022/06/16 08:57:22;;;;;;;8.68;4.95;;;;;;;;;;6224226;23;20004;-75
2022/06/16 08:59:47;;;;;;;8.32;4.60;;;;;;;;;;6248563;23;20008;-76
2022/06/16 09:02:50;;;;;;;9.02;5.95;;;;;;;;;;6250169;23;19999;-76
2022/06/16 09:05:34;;;;;;;7.32;4.05;;;;;;;;;;6247647;23;20004;-75
2022/06/16 09:08:18;;;;;;;12.02;5.55;;;;;;;;;;6246308;23;20006;-76
2022/06/16 09:10:50;;;;;;;5.40;4.32;;;;;;;;;;6219332;23;20133;-75
2022/06/16 09:13:34;;;;;;;5.43;4.40;;;;;;;;;;6196120;23;20087;-76
2022/06/16 09:16:29;;;;;;;4.72;4.20;;;;;;;;;;6219064;23;20016;-77
2022/06/16 09:18:59;;;;;;;7.40;4.95;;;;;;;;;;6250704;23;19996;-77
2022/06/16 09:21:49;;;;;;;11.77;5.40;;;;;;;;;;6222286;23;20084;-75
2022/06/16 09:24:48;;;;;;;8.38;4.88;;;;;;;;;;6219465;23;20015;-76
2022/06/16 09:27:45;;;;;;;8.52;4.38;;;;;;;;;;6179741;23;20344;-76
2022/06/16 09:30:19;;;;;;;4.83;4.27;;;;;;;;;;6218616;23;20371;-76
2022/06/16 09:32:49;;;;;;;4.82;4.35;;;;;;;;;;6219442;23;20032;-75
2022/06/16 09:35:28;;;;;;;5.55;4.85;;;;;;;;;;6244671;23;20008;-74
2022/06/16 09:38:15;;;;;;;6.03;3.90;;;;;;;;;;6244993;23;20007;-77
2022/06/16 09:40:46;;;;;;;11.82;8.82;;;;;;;;;;6249298;23;20035;-77
2022/06/16 09:43:19;;;;;;;11.77;5.97;;;;;;;;;;6217950;23;20060;-76
2022/06/16 09:45:49;;;;;;;15.30;9.77;;;;;;;;;;6194482;23;20004;-75
2022/06/16 09:49:04;;;;;;;5.88;5.35;;;;;;;;;;6218012;23;20012;-74
2022/06/16 09:51:59;;;;;;;5.35;4.22;;;;;;;;;;6180251;23;20106;-76
2022/06/16 09:54:32;;;;;;;6.53;4.30;;;;;;;;;;6217021;23;20008;-75
2022/06/16 09:57:05;;;;;;;8.27;5.72;;;;;;;;;;6218492;23;20008;-77
2022/06/16 10:00:06;;;;;;;9.27;6.20;;;;;;;;;;6197026;23;20019;-76
2022/06/16 10:02:38;;;;;;;3.70;3.40;;;;;;;;;;6244644;23;20004;-76
2022/06/16 10:05:08;;;;;;;4.40;3.20;;;;;;;;;;6193646;23;20011;-77
2022/06/16 10:07:37;;;;;;;5.15;4.30;;;;;;;;;;6194151;23;20004;-76
2022/06/16 10:10:23;;;;;;;4.30;3.85;;;;;;;;;;6200860;23;20019;-76
2022/06/16 10:12:56;;;;;;;6.68;4.00;;;;;;;;;;6217785;23;20027;-76
2022/06/16 10:15:56;;;;;;;4.55;3.65;;;;;;;;;;6217307;23;20011;-75
2022/06/16 10:18:22;;;;;;;6.55;4.30;;;;;;;;;;6219822;23;20027;-75
2022/06/16 10:20:47;;;;;;;8.15;3.55;;;;;;;;;;6224142;23;20000;-75
2022/06/16 10:23:30;;;;;;;4.05;3.63;;;;;;;;;;6192734;23;20011;-75
2022/06/16 10:25:58;;;;;;;3.90;3.50;;;;;;;;;;6192793;23;20000;-77
2022/06/16 10:28:31;;;;;;;4.60;3.83;;;;;;;;;;6218980;23;20110;-75
2022/06/16 10:30:57;;;;;;;3.88;3.50;;;;;;;;;;6218230;23;20023;-76
2022/06/16 10:33:28;;;;;;;6.32;3.33;;;;;;;;;;6217770;23;20004;-75
2022/06/16 10:36:04;;;;;;;3.70;3.35;;;;;;;;;;6192715;23;20004;-76
2022/06/16 10:38:39;;;;;;;3.28;2.97;;;;;;;;;;6194619;23;20007;-75
2022/06/16 10:41:33;;;;;;;7.78;3.58;;;;;;;;;;6222791;23;20048;-76
2022/06/16 10:44:00;;;;;;;3.92;3.35;;;;;;;;;;6195455;23;20012;-74
2022/06/16 10:46:36;;;;;;;5.75;3.22;;;;;;;;;;6193105;23;20000;-74
2022/06/16 10:49:06;;;;;;;6.25;3.90;;;;;;;;;;6244566;23;20075;-75
2022/06/16 10:51:34;;;;;;;6.13;3.40;;;;;;;;;;6193224;23;20000;-75
2022/06/16 10:54:13;;;;;;;5.30;3.22;;;;;;;;;;6218883;23;20066;-74
2022/06/16 10:56:39;;;;;;;4.65;3.58;;;;;;;;;;6218383;23;19996;-74
2022/06/16 10:59:23;;;;;;;4.97;3.25;;;;;;;;;;6217936;23;20409;-75
2022/06/16 11:01:55;;;;;;;4.45;3.20;;;;;;;;;;6250649;23;20035;-76
2022/06/16 11:04:25;;;;;;;4.07;3.25;;;;;;;;;;6218061;23;20394;-75
2022/06/16 11:06:53;;;;;;;3.50;3.10;;;;;;;;;;6245287;23;20016;-76
2022/06/16 11:09:29;;;;;;;5.65;3.78;;;;;;;;;;6218106;23;20000;-75
2022/06/16 11:12:25;;;;;;;6.72;3.80;;;;;;;;;;6218042;23;20461;-77
2022/06/16 11:15:01;;;;;;;3.88;3.00;;;;;;;;;;6221627;23;20011;-76
2022/06/16 11:17:28;;;;;;;4.47;3.20;;;;;;;;;;6192885;23;20067;-75
2022/06/16 11:20:12;;;;;;;7.97;6.47;;;;;;;;;;6193050;23;20042;-75
2022/06/16 11:22:40;;;;;;;7.90;5.00;;;;;;;;;;6249433;23;20435;-75
2022/06/16 11:25:21;;;;;;;4.85;3.55;;;;;;;;;;6192924;23;20047;-75
2022/06/16 11:27:55;;;;;;;4.93;4.43;;;;;;;;;;6244462;23;20340;-75
2022/06/16 11:30:47;;;;;;;4.97;3.28;;;;;;;;;;6217181;23;20007;-75
2022/06/16 11:36:44;;;;;;;18.45;12.90;;;;;;;;;;6244147;23;20198;-76
2022/06/16 11:39:51;;;;;;;3.47;3.17;;;;;;;;;;6244777;23;20005;-75
2022/06/16 11:42:31;;;;;;;7.43;5.38;;;;;;;;;;6172623;23;20004;-76
2022/06/16 11:45:18;;;;;;;5.57;3.47;;;;;;;;;;6219097;23;20000;-76
2022/06/16 11:48:08;;;;;;;12.80;5.03;;;;;;;;;;6244413;23;20424;-75
2022/06/16 11:50:59;;;;;;;4.93;4.20;;;;;;;;;;6243897;23;20005;-77
2022/06/16 11:53:39;;;;;;;14.80;11.02;;;;;;;;;;6146855;23;20174;-76
2022/06/16 11:56:11;;;;;;;7.18;4.15;;;;;;;;;;6217967;23;20008;-77
2022/06/16 11:59:02;;;;;;;9.20;4.47;;;;;;;;;;6244437;23;20415;-75
2022/06/16 12:01:38;;;;;;;8.85;3.80;;;;;;;;;;6223350;23;20137;-76
2022/06/16 12:04:34;;;;;;;4.32;3.83;;;;;;;;;;6217811;23;20083;-76
2022/06/16 12:07:18;;;;;;;23.08;14.63;;;;;;;;;;6243941;23;20008;-76
2022/06/16 12:09:56;;;;;;;5.57;4.45;;;;;;;;;;6217462;23;20000;-75
2022/06/16 12:12:43;;;;;;;4.95;3.53;;;;;;;;;;6217324;23;20035;-76
2022/06/16 12:15:27;;;;;;;7.13;4.20;;;;;;;;;;6243912;23;20004;-76
2022/06/16 12:18:14;;;;;;;4.68;3.60;;;;;;;;;;6220956;23;20328;-77
2022/06/16 12:21:02;;;;;;;4.40;3.70;;;;;;;;;;6249428;23;20004;-76
2022/06/16 12:23:56;;;;;;;5.45;4.47;;;;;;;;;;6194486;23;20012;-75
2022/06/16 12:26:28;;;;;;;10.40;6.03;;;;;;;;;;6243931;23;20012;-75
2022/06/16 12:29:12;;;;;;;6.15;3.53;;;;;;;;;;6243829;23;20420;-75
2022/06/16 12:31:58;;;;;;;4.80;3.67;;;;;;;;;;6243924;23;20004;-75
2022/06/16 12:34:56;;;;;;;13.00;7.63;;;;;;;;;;6244309;23;20019;-75
2022/06/16 12:37:24;;;;;;;9.85;6.45;;;;;;;;;;6242661;23;20011;-75
2022/06/16 12:39:55;;;;;;;6.85;3.63;;;;;;;;;;6244058;23;20023;-75
2022/06/16 12:42:23;;;;;;;5.47;4.65;;;;;;;;;;6172209;23;20005;-75
2022/06/16 12:45:10;;;;;;;7.75;5.35;;;;;;;;;;6216937;23;20027;-75
2022/06/16 12:47:50;;;;;;;9.25;4.60;;;;;;;;;;6217137;23;20011;-75
2022/06/16 12:50:35;;;;;;;8.50;7.30;;;;;;;;;;6217129;23;20004;-75
2022/06/16 12:53:05;;;;;;;4.65;3.78;;;;;;;;;;6221212;23;20065;-75
2022/06/16 12:55:45;;;;;;;4.97;3.70;;;;;;;;;;6244084;23;20010;-75
2022/06/16 12:58:24;;;;;;;4.22;3.55;;;;;;;;;;6193757;23;20023;-75
2022/06/16 13:00:52;;;;;;;7.75;3.83;;;;;;;;;;6219177;23;20065;-75
2022/06/16 13:03:38;;;;;;;4.00;3.60;;;;;;;;;;6218843;23;20000;-75
2022/06/16 13:06:04;;;;;;;5.40;3.90;;;;;;;;;;6217535;23;20004;-76
2022/06/16 13:08:31;;;;;;;4.65;3.70;;;;;;;;;;6218590;23;20428;-76
2022/06/16 13:10:58;;;;;;;4.20;3.80;;;;;;;;;;6193787;23;20008;-75
2022/06/16 13:13:26;;;;;;;13.02;8.18;;;;;;;;;;6193657;23;20343;-75
2022/06/16 13:15:53;;;;;;;4.95;3.90;;;;;;;;;;6218683;23;20411;-76
2022/06/16 13:18:21;;;;;;;4.70;3.80;;;;;;;;;;6219209;23;20430;-77
2022/06/16 13:20:52;;;;;;;7.38;3.60;;;;;;;;;;6195110;23;20008;-74
2022/06/16 13:23:30;;;;;;;3.97;3.40;;;;;;;;;;6224422;23;20005;-75
2022/06/16 13:26:35;;;;;;;3.90;3.60;;;;;;;;;;6195893;23;20004;-76
2022/06/16 13:29:06;;;;;;;4.18;3.60;;;;;;;;;;6216817;23;20000;-75
2022/06/16 13:31:46;;;;;;;4.07;3.63;;;;;;;;;;6245235;23;20054;-75
2022/06/16 13:34:22;;;;;;;5.30;4.80;;;;;;;;;;6245626;23;20004;-76
2022/06/16 13:36:52;;;;;;;4.35;3.95;;;;;;;;;;6218758;23;20087;-74
2022/06/16 13:39:58;;;;;;;3.80;3.33;;;;;;;;;;6219048;23;20004;-80
2022/06/16 13:42:44;;;;;;;3.85;3.53;;;;;;;;;;6255054;22;19996;-82
2022/06/16 13:45:12;;;;;;;7.85;4.28;;;;;;;;;;6221437;23;20003;-83
2022/06/16 13:48:08;;;;;;;5.53;3.80;;;;;;;;;;6246180;23;20008;-82
2022/06/16 13:50:59;;;;;;;4.45;3.88;;;;;;;;;;6245871;23;20054;-81
2022/06/16 13:53:31;;;;;;;4.10;3.60;;;;;;;;;;6219055;23;20091;-81
2022/06/16 13:55:59;;;;;;;5.68;3.40;;;;;;;;;;6245515;23;20047;-82
2022/06/16 13:58:35;;;;;;;6.38;3.55;;;;;;;;;;6245045;23;20032;-80
2022/06/16 14:01:13;;;;;;;4.13;3.67;;;;;;;;;;6220774;23;20083;-80
2022/06/16 14:04:00;;;;;;;12.95;8.38;;;;;;;;;;6230721;23;20012;-81
2022/06/16 14:06:39;;;;;;;5.72;5.07;;;;;;;;;;6245446;23;20061;-81
2022/06/16 14:09:09;;;;;;;4.80;3.28;;;;;;;;;;6219462;23;20000;-81
2022/06/16 14:11:35;;;;;;;6.55;4.47;;;;;;;;;;6218795;23;20390;-80
2022/06/16 14:14:18;;;;;;;5.68;5.15;;;;;;;;;;6245569;23;20004;-80
2022/06/16 14:16:53;;;;;;;6.47;3.35;;;;;;;;;;6245058;23;20453;-80
2022/06/16 14:19:26;;;;;;;3.95;3.55;;;;;;;;;;6244399;23;20011;-78
2022/06/16 14:22:11;;;;;;;5.40;3.67;;;;;;;;;;6226063;23;19996;-81
2022/06/16 14:25:00;;;;;;;4.25;3.28;;;;;;;;;;6254934;22;20035;-81
2022/06/16 14:27:34;;;;;;;5.93;3.80;;;;;;;;;;6244862;23;20000;-81
2022/06/16 14:30:00;;;;;;;4.00;3.60;;;;;;;;;;6245187;23;20089;-82
2022/06/16 14:32:36;;;;;;;4.80;3.67;;;;;;;;;;6218460;23;20431;-81
2022/06/16 14:35:24;;;;;;;5.00;3.60;;;;;;;;;;6192592;23;20328;-81
2022/06/16 14:38:05;;;;;;;4.00;3.45;;;;;;;;;;6243760;23;20031;-81
2022/06/16 14:40:33;;;;;;;6.45;3.85;;;;;;;;;;6244061;23;20027;-81
2022/06/16 14:43:00;;;;;;;3.75;3.45;;;;;;;;;;6228224;23;20026;-82
2022/06/16 14:45:30;;;;;;;4.13;3.05;;;;;;;;;;6221781;23;20004;-82
2022/06/16 14:48:03;;;;;;;4.35;3.40;;;;;;;;;;6218263;23;20000;-81
2022/06/16 14:50:32;;;;;;;6.00;3.70;;;;;;;;;;6244212;23;20026;-81
2022/06/16 14:52:59;;;;;;;3.90;3.60;;;;;;;;;;6218109;23;20062;-81
2022/06/16 14:55:32;;;;;;;4.50;3.70;;;;;;;;;;6217970;23;19996;-81
2022/06/16 14:58:04;;;;;;;6.80;3.83;;;;;;;;;;6193787;23;20014;-82
2022/06/16 15:00:32;;;;;;;4.05;3.60;;;;;;;;;;6219332;23;19996;-79
2022/06/16 15:03:06;;;;;;;5.60;3.80;;;;;;;;;;6202941;23;20000;-81
2022/06/16 15:05:34;;;;;;;6.00;3.70;;;;;;;;;;6221650;23;20015;-81
2022/06/16 15:08:00;;;;;;;6.43;3.40;;;;;;;;;;6217918;23;20085;-81
2022/06/16 15:10:27;;;;;;;4.57;3.83;;;;;;;;;;6193810;23;20046;-81
2022/06/16 15:12:52;;;;;;;3.75;3.40;;;;;;;;;;6218218;23;20010;-80
2022/06/16 15:15:23;;;;;;;5.40;3.35;;;;;;;;;;6244757;23;20415;-79
2022/06/16 15:20:33;;;;;;;5.45;3.53;;;;;;;;;;6221879;23;20070;-82
2022/06/16 15:22:59;;;;;;;3.78;3.47;;;;;;;;;;6222742;23;20028;-83